Thursday, July 18, 2019, 9:46 AM EDT
Back to Local

KBDR, Sikorsky Memorial Airport

Location: Stratford, CT, United States Lat: 41.167
Local Time: 9:46 AM EDT (13:46 GMT) Lon: -73.133
Time Zone: US/Eastern Elev: 9 ft

Show me the last for .
Show Decoded

2019-07-18 09:36 METAR KBDR 181336Z 10005KT 10SM SCT008 OVC012 23/22 A2992 RMK AO2 T02330222 $ =
2019-07-18 09:12 METAR KBDR 181312Z 10004KT 10SM BKN010 OVC014 23/23 A2992 RMK AO2 CIG 008V012
                 T02330228 $ =
2019-07-18 08:52 METAR KBDR 181252Z 10003KT 10SM OVC009 23/23 A2992 RMK AO2 RAE03 SLP132 P0000
                 T02330228 $ =
2019-07-18 08:31 METAR KBDR 181231Z 09004KT 10SM OVC009 23/22 A2992 RMK AO2 RAE03 P0000 T02330222
                 $ =
2019-07-18 07:59 METAR KBDR 181159Z 00000KT 10SM -RA OVC014 23/22 A2992 RMK AO2 P0000 T02330222 $
                 =
2019-07-18 07:52 METAR KBDR 181152Z 00000KT 9SM -RA OVC015 23/22 A2992 RMK AO2 RAE21B42 SLP130
                 P0002 60031 70117 T02330222 10244 20228 53002 $ =
2019-07-18 07:40 METAR KBDR 181140Z 00000KT 10SM SCT005 OVC015 23/22 A2991 RMK AO2 RAE21 P0002
                 T02330222 $ =
2019-07-18 07:07 METAR KBDR 181107Z 00000KT 9SM -RA BKN005 OVC100 24/23 A2991 RMK AO2 P0002
                 T02390228 $ =
2019-07-18 06:52 METAR KBDR 181052Z 00000KT 5SM RA BR FEW006 SCT070 OVC100 23/22 A2991 RMK AO2
                 SLP128 P0008 T02330222 $ =
2019-07-18 06:21 METAR KBDR 181021Z AUTO 15003KT 5SM RA BR FEW012 BKN032 OVC075 23/22 A2990 RMK
                 AO2 P0005 T02330222 $ =
2019-07-18 06:08 METAR KBDR 181008Z AUTO 00000KT 4SM -RA BR SCT012 BKN023 OVC036 23/22 A2991 RMK
                 AO2 P0003 T02330222 $ =
2019-07-18 05:52 METAR KBDR 180952Z AUTO 00000KT 2 1/2SM -RA BR SCT013 BKN021 OVC029 24/23 A2991
                 RMK AO2 SLP127 P0019 T02440233 $ =
2019-07-18 05:37 METAR KBDR 180937Z AUTO 00000KT 3SM RA BR BKN020 OVC029 23/22 A2991 RMK AO2
                 P0017 T02280222 $ =
2019-07-18 05:27 METAR KBDR 180927Z AUTO 19003KT 1 3/4SM +RA BR FEW014 OVC020 23/22 A2991 RMK AO2
                 P0010 T02280222 $ =
2019-07-18 04:52 METAR KBDR 180852Z AUTO 21003KT 5SM -RA BR SCT013 OVC022 23/22 A2991 RMK AO2
                 RAB39 SLP128 P0002 60002 T02330222 53009 $ =
2019-07-18 04:31 METAR KBDR 180831Z AUTO 26003KT 10SM BKN014 BKN026 OVC037 23/22 A2991 =
2019-07-18 04:15 METAR KBDR 180815Z AUTO 23005KT 10SM SCT004 BKN027 OVC038 23/22 A2991 =
2019-07-18 03:52 METAR KBDR 180752Z AUTO 21007KT 8SM OVC003 23/22 A2990 RMK AO2 CIG 002V007
                 SLP125 T02280217 $ =
2019-07-18 02:59 METAR KBDR 180659Z AUTO 21003KT 6SM BR OVC004 23/22 A2989 =
2019-07-18 02:52 METAR KBDR 180652Z AUTO 21003KT 6SM BR OVC005 23/22 A2989 RMK AO2 SLP120
                 T02280217 $ =
2019-07-18 02:22 METAR KBDR 180622Z AUTO 00000KT 9SM BKN005 23/22 A2988 RMK AO2 T02330222 $ =
2019-07-18 02:08 METAR KBDR 180608Z AUTO 00000KT 9SM SCT005 23/22 A2988 RMK AO2 T02330222 $ =
2019-07-18 01:52 METAR KBDR 180552Z AUTO 13003KT 10SM CLR 23/22 A2988 RMK AO2 RAE01 SLP118 P0000
                 60045 T02330222 10283 20233 58007 $ =
2019-07-18 01:17 METAR KBDR 180517Z AUTO 01005KT 8SM FEW004 24/22 A2988 RMK AO2 RAE01 P0000
                 T02390222 $ =
2019-07-18 00:52 METAR KBDR 180452Z AUTO 02004KT 10SM -RA CLR 23/22 A2988 RMK AO2 SLP117 P0004
                 T02330222 403330233 $ =
2019-07-17 23:52 METAR KBDR 180352Z AUTO 14003KT 6SM RA BR SCT080 OVC100 23/22 A2991 RMK AO2
                 RAE0255B20 SLP128 P0004 T02330222 $ =
2019-07-17 22:52 METAR KBDR 180252Z AUTO 06005KT 10SM -RA FEW110 24/22 A2990 RMK AO2 LTG DSNT SE
                 SLP125 P0007 60037 T02390222 50011 $ =
2019-07-17 21:52 METAR KBDR 180152Z 00000KT 8SM -RA FEW015 SCT060 BKN100 24/22 A2993 RMK AO2 LTG
                 DSNT ALQDS TSE02B06E26 SLP134 P0010 T02390222 $ =
2019-07-17 21:31 METAR KBDR 180131Z 28013G19KT 6SM -RA BR FEW017 BKN080 OVC100 24/22 A2996 RMK
                 AO2 LTG DSNT ALQDS TSE02B06E26 P0008 T02390217 $ =
2019-07-17 20:52 METAR KBDR 180052Z 24003KT 3SM TSRA BR FEW018 BKN050 OVC090 24/22 A2990 RMK AO2
                 LTG DSNT E AND SW AND W RAB06 TSB14 SLP123 TS S MOV NE P0020 T02390222 $ =
2019-07-17 20:35 METAR KBDR 180035Z 23011G16KT 7SM -TSRA FEW014 BKN037 OVC080 24/22 A2989 RMK AO2
                 LTG DSNT ALQDS RAB06 TSB14 TS S MOV NE P0011 T02440222 $ =
2019-07-17 20:20 METAR KBDR 180020Z 24006KT 2 1/2SM +TSRA BKN037 BKN055 26/23 A2990 RMK AO2 LTG
                 DSNT S-W RAB06 TSB14 PRESRR TS S MOV NE P0003 T02560228 $ =
2019-07-17 20:11 METAR KBDR 180011Z 32007KT 2SM VCTS -RA FEW039 BKN055 BKN070 26/23 A2988 RMK AO2
                 LTG DSNT SW AND W RAB06 TS S MOV NE P0000 T02610228 $ =
2019-07-17 19:52 METAR KBDR 172352Z 34008KT 10SM VCTS CLR 27/22 A2987 RMK AO2 LTG DSNT SW AND W
                 RAE2254 TSE28 SLP114 P0000 60041 T02670222 10333 20239 53003 $ =
2019-07-17 19:34 METAR KBDR 172334Z 30004KT 10SM FEW043 SCT055 28/23 A2986 RMK AO2 LTG DSNT SW
                 RAE2254 TSE28 P0000 T02780228 $ =
2019-07-17 18:52 METAR KBDR 172252Z 14005KT 8SM -TSRA SCT055 27/22 A2986 RMK AO2 PK WND
                 21028/2227 LTG DSNT SE-SW RAB43 SLP112 P0000 T02670222 $ =
2019-07-17 17:52 METAR KBDR 172152Z 17011G18KT 10SM TS FEW019 SCT033 SCT049 27/23 A2986 RMK AO2
                 LTG DSNT SE AND W RAE50 SLP111 P0036 T02670228 $ =
2019-07-17 17:50 METAR KBDR 172150Z 18012G18KT 10SM TS FEW019 SCT033 BKN095 27/23 A2986 RMK AO2
                 LTG DSNT W RAE50 P0036 $ =
2019-07-17 17:39 METAR KBDR 172139Z VRB06G23KT 1SM +TSRA BR SCT027 BKN048 OVC100 25/23 A2987 RMK
                 AO2 LTG DSNT SW P0035 T02500228 $ =
2019-07-17 17:36 METAR KBDR 172136Z 27006G23KT 3/4SM +TSRA BR BKN029 BKN048 OVC100 24/22 A2988
                 RMK AO2 LTG DSNT SW P0028 T02390217 $ =
2019-07-17 17:32 METAR KBDR 172132Z 28013G23KT 1 3/4SM +TSRA BKN034 BKN050 OVC100 25/22 A2989 RMK
                 AO2 LTG DSNT S AND SW P0015 T02500222 $ =
2019-07-17 16:52 METAR KBDR 172052Z 32006KT 7SM -TSRA SCT036 SCT060 BKN095 27/21 A2986 RMK AO2
                 LTG DSNT NE AND W RAB29 TSB27 SLP112 TS OVHD MOV S-NE P0004 60005 T02720211
                 57012 $ =
2019-07-17 16:33 METAR KBDR 172033Z 03003KT 10SM -TSRA SCT110 29/19 A2987 RMK AO2 LTG DSNT W-N
                 RAB29 TSB27 P0000 T02940194 $ =
2019-07-17 16:17 METAR KBDR 172017Z 10005KT 10SM VCTS CLR 31/19 A2986 RMK AO2 LTG DSNT NE AND W
                 T03060194 $ =
2019-07-17 15:52 METAR KBDR 171952Z 14004KT 10SM CLR 31/22 A2987 RMK AO2 LTG DSNT W-NE RAE1855
                 TSE07 SLP116 P0001 T03110222 $ =
2019-07-17 15:34 METAR KBDR 171934Z VRB03KT 10SM FEW110 32/20 A2987 RMK AO2 LTG DSNT NW-E RAE1855
                 TSE07 P0000 T03220200 $ =
2019-07-17 15:13 METAR KBDR 171913Z 16006KT 10SM VCTS FEW060 SCT090 BKN100 29/21 A2988 RMK AO2
                 LTG DSNT NW-E RAE1855 TSE07 P0000 T02940206 $ =
2019-07-17 14:52 METAR KBDR 171852Z 18006G14KT 10SM -TSRA FEW055 FEW090 SCT110 30/21 A2988 RMK
                 AO2 RAB46 TSB27 SLP120 TS S MOV E P0000 T03000211 $ =
2019-07-17 14:33 METAR KBDR 171833Z 19015KT 10SM TS FEW060 31/23 A2989 RMK AO2 LTG DSNT NE AND S
                 AND SW TSB27 TS S MOV E T03060228 $ =
2019-07-17 14:17 METAR KBDR 171817Z 18011KT 10SM VCTS CLR 32/23 A2989 RMK AO2 LTG DSNT S AND SW
                 T03220233 $ =
2019-07-17 13:52 METAR KBDR 171752Z 21007KT 10SM CLR 32/23 A2990 RMK AO2 LTG DSNT SW SLP124
                 T03170228 10333 20250 58017 $ =
2019-07-17 12:52 METAR KBDR 171652Z 22009KT 10SM CLR 32/23 A2992 RMK AO2 SLP131 T03220233 $ =
2019-07-17 11:52 METAR KBDR 171552Z 20011KT 10SM CLR 31/23 A2993 RMK AO2 SLP136 T03060233 $ =
2019-07-17 10:52 METAR KBDR 171452Z 21010KT 10SM CLR 29/23 A2995 RMK AO2 SLP141 T02890233 58006 $
                 =
2019-07-17 09:52 METAR KBDR 171352Z 24006KT 10SM CLR 28/23 A2996 RMK AO2 SLP147 T02830228 $ =

Support USWX by starting your Amazon purchase here.